Pagrindinis puslapis
METAR-TAF:

METAR-TAF

Oro uostai :

Salala, Omanas

platuma: 17-02N, ilguma: 054-05E, Aukštis: 20 m

Dabartinis oras

Ataskaita buvo paskelbta 1 valandą ir 12 minutes, ne 21:50 UTC
Vėjas 2 kt nuo kintamojo kryptimis
Temperatūra 27°C
Drėgmė 70%
Slėgis 1013 hPa
Matomumas 10 km arba daugiau
Mažai debesys ne aukštis 2500 ft

METAR: OOSA 122150Z VRB02KT 9999 FEW025 27/21 Q1013 NOSIG

Laikas: 03:02 (23:02 UTC)

Prognozė

Ataskaita buvo paskelbta 5 valandos ir 22 minutes, ne 17:40 UTC
Prognozė galioja nuo 12 metu 18 UTC su 14 metu 00 UTC
Vėjas 3 kt nuo kintamojo kryptimis
Matomumas 10 km arba daugiau
Išsisklaidę debesys ne aukštis 2500 ft
Tapsmas
nuo 13 metu 06 UTC su 13 metu 08 UTC
Vėjas 12 kt iš Pietų
Tapsmas
nuo 13 metu 15 UTC su 13 metu 17 UTC
Vėjas 3 kt nuo kintamojo kryptimis

TAF: OOSA 121740Z 1218/1400 VRB03KT 9999 SCT025 BECMG 1306/1308 19012KT BECMG 1315/1317 VRB03KT

Orai ataskaitas ir orų prognozės (METAR, TAF).

turimą stotys yra geltonos ir raudonos taškus žemėlapyje.

Perkelti pele per norėdami pamatyti stoties vardą.

Tada spustelėkite, norėdami matyti oro stebėjimo ir prognozės.

Norėdami pakeisti žemėlapį: spustelėkite ant žalios mygtukų su juodo kryžiaus žemyn,; žalią mygtuką su brūkšneliu, jei norite nutolinti; arba žalių rodyklių gretimoms žemėlapius.


METAR-TAF: